createdAt,value
2017-11-01T00:01:45.672Z,5.77
2017-11-01T00:04:14.035Z,7.40
2017-11-01T00:06:42.331Z,9.67
2017-11-01T00:09:10.627Z,6.50
2017-11-01T00:11:38.948Z,7.60
2017-11-01T00:14:07.223Z,6.60
2017-11-01T00:16:35.498Z,7.00
2017-11-01T00:19:03.786Z,10.10
2017-11-01T00:21:32.081Z,10.50
2017-11-01T00:24:00.410Z,4.50
2017-11-01T00:26:28.683Z,4.50
2017-11-01T00:28:56.965Z,4.90
2017-11-01T00:31:25.292Z,4.90
2017-11-01T00:33:54.356Z,4.20
2017-11-01T00:36:22.622Z,3.83
2017-11-01T00:38:50.915Z,3.63
2017-11-01T00:41:19.232Z,6.93
2017-11-01T00:43:47.506Z,6.47
2017-11-01T00:46:15.787Z,5.60
2017-11-01T00:48:44.096Z,9.40
2017-11-01T00:51:12.376Z,9.20
2017-11-01T00:53:40.691Z,8.97
2017-11-01T00:56:09.738Z,11.00
2017-11-01T00:58:38.033Z,6.70
2017-11-01T01:01:06.311Z,6.40
2017-11-01T01:03:34.646Z,7.70
2017-11-01T01:06:02.956Z,9.07
2017-11-01T01:08:31.249Z,11.73
2017-11-01T01:10:59.567Z,13.87
2017-11-01T01:13:27.884Z,13.20
2017-11-01T01:15:56.219Z,18.67
2017-11-01T01:18:24.511Z,22.20
2017-11-01T01:20:52.801Z,20.33
2017-11-01T01:23:21.867Z,20.00
2017-11-01T01:25:50.156Z,23.80
2017-11-01T01:28:18.463Z,19.93
2017-11-01T01:30:46.783Z,27.50
2017-11-01T01:33:15.852Z,20.07
2017-11-01T01:35:44.139Z,14.40
2017-11-01T01:38:12.417Z,16.47
2017-11-01T01:40:40.716Z,20.83
2017-11-01T01:43:09.027Z,15.40
2017-11-01T01:45:37.323Z,14.30
2017-11-01T01:48:06.413Z,15.63
2017-11-01T01:50:34.727Z,16.73
2017-11-01T01:53:03.014Z,20.80
2017-11-01T01:55:32.096Z,20.83
2017-11-01T01:58:00.391Z,20.97
2017-11-01T02:00:28.680Z,26.27
2017-11-01T02:02:57.007Z,23.80
2017-11-01T02:05:25.308Z,24.53
2017-11-01T02:07:53.608Z,23.47
2017-11-01T02:10:21.899Z,16.53
2017-11-01T02:12:51.115Z,19.53
2017-11-01T02:15:19.403Z,16.63
2017-11-01T02:17:47.728Z,16.30
2017-11-01T02:20:16.087Z,28.00
2017-11-01T02:22:44.406Z,16.77
2017-11-01T02:25:12.775Z,17.50
2017-11-01T02:27:41.107Z,20.00
2017-11-01T02:30:10.277Z,18.17
2017-11-01T02:32:38.616Z,17.10
2017-11-01T02:35:06.988Z,18.67
2017-11-01T02:37:36.054Z,16.97
2017-11-01T02:40:04.457Z,15.73
2017-11-01T02:42:32.789Z,16.93
2017-11-01T02:45:01.843Z,13.83
2017-11-01T02:47:30.234Z,13.23
2017-11-01T02:49:58.651Z,11.43
2017-11-01T02:52:26.939Z,10.47
2017-11-01T02:54:55.271Z,11.80
2017-11-01T02:57:23.566Z,11.80
2017-11-01T02:59:51.879Z,13.47
2017-11-01T03:02:20.155Z,15.17
2017-11-01T03:04:48.460Z,16.03
2017-11-01T03:07:16.757Z,18.43
2017-11-01T03:09:45.043Z,21.50
2017-11-01T03:12:14.104Z,15.63
2017-11-01T03:14:42.438Z,19.27
2017-11-01T03:17:10.730Z,22.50
2017-11-01T03:19:39.044Z,18.20
2017-11-01T03:22:07.334Z,18.57
2017-11-01T03:24:35.642Z,18.07
2017-11-01T03:27:03.939Z,19.27
2017-11-01T03:29:32.244Z,17.67
2017-11-01T03:32:00.588Z,15.93
2017-11-01T03:34:28.886Z,17.43
2017-11-01T03:36:57.996Z,15.93
2017-11-01T03:39:27.077Z,21.77
2017-11-01T03:41:55.484Z,24.07
2017-11-01T03:44:24.617Z,19.20
2017-11-01T03:46:52.984Z,26.73
2017-11-01T03:49:21.366Z,22.27
2017-11-01T03:51:50.442Z,16.13
2017-11-01T03:54:18.758Z,14.13
2017-11-01T03:56:47.047Z,16.40
2017-11-01T03:59:15.368Z,14.47
2017-11-01T04:01:44.420Z,17.30
2017-11-01T04:04:12.735Z,16.07
2017-11-01T04:06:41.022Z,18.20
2017-11-01T04:09:09.466Z,16.63
2017-11-01T04:11:37.750Z,18.67
2017-11-01T04:14:06.054Z,20.77
2017-11-01T04:16:34.350Z,26.20
2017-11-01T04:19:18.406Z,23.83
2017-11-01T04:21:46.758Z,24.10
2017-11-01T04:24:15.050Z,21.13
2017-11-01T04:26:43.354Z,26.20
2017-11-01T04:29:12.399Z,23.83
2017-11-01T04:31:40.740Z,22.57
2017-11-01T04:34:09.080Z,18.90
2017-11-01T04:36:40.244Z,17.57
2017-11-01T04:39:08.606Z,18.37
2017-11-01T04:41:36.977Z,15.80
2017-11-01T04:44:06.090Z,16.40
2017-11-01T04:46:35.243Z,16.47
2017-11-01T04:49:04.339Z,22.70
2017-11-01T04:51:32.714Z,25.40
2017-11-01T04:54:03.304Z,21.10
2017-11-01T04:56:31.640Z,21.70
2017-11-01T04:58:59.954Z,29.70
2017-11-01T05:01:28.238Z,32.93
2017-11-01T05:03:56.607Z,34.33
2017-11-01T05:06:28.696Z,28.33
2017-11-01T05:08:57.831Z,22.93
2017-11-01T05:11:31.723Z,22.50
2017-11-01T05:14:03.875Z,24.87
2017-11-01T05:16:32.273Z,24.43
2017-11-01T05:19:00.657Z,21.17
2017-11-01T05:21:29.745Z,23.17
2017-11-01T05:23:58.086Z,29.00
2017-11-01T05:26:26.486Z,23.50
2017-11-01T05:28:54.865Z,35.43
2017-11-01T05:31:23.253Z,30.80
2017-11-01T05:33:51.597Z,21.37
2017-11-01T05:36:20.708Z,23.47
2017-11-01T05:38:49.005Z,33.57
2017-11-01T05:41:17.322Z,20.63
2017-11-01T05:43:46.413Z,18.20
2017-11-01T05:46:15.549Z,24.07
2017-11-01T05:48:43.914Z,20.83
2017-11-01T05:51:13.064Z,23.50
2017-11-01T05:53:41.441Z,23.20
2017-11-01T05:56:09.769Z,20.07
2017-11-01T05:58:38.919Z,21.33
2017-11-01T06:01:07.270Z,25.13
2017-11-01T06:03:35.655Z,33.80
2017-11-01T06:06:03.994Z,42.00
2017-11-01T06:08:32.386Z,57.27
2017-11-01T06:11:01.498Z,36.07
2017-11-01T06:13:29.841Z,40.30
2017-11-01T06:15:58.237Z,34.97
2017-11-01T06:18:27.348Z,24.97
2017-11-01T06:20:55.704Z,26.10
2017-11-01T06:23:24.041Z,25.90
2017-11-01T06:25:53.178Z,25.33
2017-11-01T06:28:21.540Z,24.87
2017-11-01T06:30:50.648Z,24.10
2017-11-01T06:33:19.782Z,33.53
2017-11-01T06:35:48.130Z,36.80
2017-11-01T06:38:16.519Z,37.67
2017-11-01T06:40:45.697Z,41.83
2017-11-01T06:43:14.104Z,44.87
2017-11-01T06:45:42.574Z,46.60
2017-11-01T06:48:11.079Z,38.07
2017-11-01T06:50:39.435Z,29.03
2017-11-01T06:53:08.548Z,23.67
2017-11-01T06:55:36.878Z,25.07
2017-11-01T06:58:05.255Z,24.30
2017-11-01T07:00:38.217Z,22.13
2017-11-01T07:03:06.570Z,23.80
2017-11-01T07:05:34.943Z,21.87
2017-11-01T07:08:03.338Z,22.03
2017-11-01T07:10:31.720Z,42.70
2017-11-01T07:13:00.127Z,44.17
2017-11-01T07:15:28.520Z,35.37
2017-11-01T07:17:56.886Z,32.63
2017-11-01T07:20:25.275Z,31.50
2017-11-01T07:22:53.665Z,38.20
2017-11-01T07:25:22.029Z,25.80
2017-11-01T07:27:50.358Z,19.80
2017-11-01T07:30:18.722Z,16.83
2017-11-01T07:32:47.056Z,18.33
2017-11-01T07:35:15.410Z,20.43
2017-11-01T07:37:43.784Z,20.47
2017-11-01T07:40:12.199Z,20.07
2017-11-01T07:42:40.679Z,19.23
2017-11-01T07:45:09.010Z,24.40
2017-11-01T07:47:37.331Z,19.90
2017-11-01T07:50:06.426Z,17.90
2017-11-01T07:52:34.743Z,14.30
2017-11-01T07:55:03.036Z,13.70
2017-11-01T07:57:31.360Z,12.80
2017-11-01T07:59:59.657Z,15.80
2017-11-01T08:02:27.954Z,16.00
2017-11-01T08:04:56.317Z,15.30
2017-11-01T08:07:24.605Z,14.90
2017-11-01T08:09:52.924Z,14.13
2017-11-01T08:12:21.215Z,14.50
2017-11-01T08:14:49.580Z,15.23
2017-11-01T08:19:52.472Z,21.20
2017-11-01T08:22:20.971Z,26.43
2017-11-01T08:24:49.337Z,16.27
2017-11-01T08:27:18.419Z,19.23
2017-11-01T08:29:46.710Z,20.47
2017-11-01T08:32:15.002Z,30.50
2017-11-01T08:34:43.324Z,21.60
2017-11-01T08:37:12.379Z,15.17
2017-11-01T08:39:40.714Z,13.77
2017-11-01T08:42:09.780Z,12.97
2017-11-01T08:44:38.831Z,15.40
2017-11-01T08:47:08.180Z,12.27
2017-11-01T08:49:36.469Z,11.33
2017-11-01T08:52:04.765Z,11.83
2017-11-01T08:54:33.060Z,11.80
2017-11-01T08:57:01.405Z,11.43
2017-11-01T08:59:30.456Z,12.80
2017-11-01T09:01:58.791Z,12.30
2017-11-01T09:04:27.851Z,10.20
2017-11-01T09:06:56.134Z,9.37
2017-11-01T09:09:24.456Z,10.13
2017-11-01T09:11:52.747Z,10.50
2017-11-01T09:14:21.820Z,8.87
2017-11-01T09:16:50.102Z,10.80
2017-11-01T09:19:19.298Z,9.87
2017-11-01T09:21:47.580Z,9.13
2017-11-01T09:24:15.869Z,8.33
2017-11-01T09:26:44.152Z,9.40
2017-11-01T09:29:12.484Z,8.40
2017-11-01T09:31:40.779Z,8.30
2017-11-01T09:34:09.086Z,10.73
2017-11-01T09:36:37.369Z,8.67
2017-11-01T09:39:05.696Z,9.33
2017-11-01T09:41:34.364Z,7.70
2017-11-01T09:44:02.688Z,9.90
2017-11-01T09:46:30.988Z,9.10
2017-11-01T09:48:59.280Z,10.00
2017-11-01T09:51:27.599Z,9.87
2017-11-01T09:53:55.878Z,10.30
2017-11-01T09:56:24.464Z,8.70
2017-11-01T09:58:52.778Z,8.83
2017-11-01T10:01:21.093Z,10.40
2017-11-01T10:03:50.147Z,9.87
2017-11-01T10:06:18.620Z,8.90
2017-11-01T10:08:47.235Z,10.70
2017-11-01T10:11:15.865Z,8.67
2017-11-01T10:13:44.417Z,8.50
2017-11-01T10:16:13.055Z,9.33
2017-11-01T10:18:41.648Z,8.77
2017-11-01T10:21:10.260Z,9.43
2017-11-01T10:23:38.766Z,9.73
2017-11-01T10:26:07.219Z,8.20
2017-11-01T10:28:36.522Z,9.77
2017-11-01T10:31:05.149Z,10.50
2017-11-01T10:33:33.652Z,10.20
2017-11-01T10:36:02.321Z,9.80
2017-11-01T10:38:30.854Z,9.60
2017-11-01T10:40:59.179Z,11.03
2017-11-01T10:43:27.495Z,9.40
2017-11-01T10:45:55.787Z,10.17
2017-11-01T10:48:24.091Z,9.07
2017-11-01T10:50:52.411Z,9.50
2017-11-01T10:53:20.754Z,10.60
2017-11-01T10:55:49.064Z,9.50
2017-11-01T10:58:17.340Z,9.10
2017-11-01T11:00:45.629Z,8.93
2017-11-01T11:03:13.915Z,9.77
2017-11-01T11:05:42.220Z,8.13
2017-11-01T11:08:10.534Z,7.80
2017-11-01T11:10:38.839Z,8.23
2017-11-01T11:13:07.145Z,8.70
2017-11-01T11:15:35.446Z,8.70
2017-11-01T11:18:03.737Z,7.30
2017-11-01T11:20:32.052Z,8.37
2017-11-01T11:23:01.111Z,6.67
2017-11-01T11:25:29.400Z,7.70
2017-11-01T11:27:57.715Z,7.70
2017-11-01T11:30:26.016Z,7.83
2017-11-01T11:32:54.336Z,8.90
2017-11-01T11:35:23.422Z,8.23
2017-11-01T11:37:52.508Z,9.20
2017-11-01T11:40:20.807Z,10.10
2017-11-01T11:42:49.959Z,9.00
2017-11-01T11:45:18.279Z,8.20
2017-11-01T11:47:46.614Z,9.57
2017-11-01T11:50:15.674Z,9.30
2017-11-01T11:52:43.998Z,7.40
2017-11-01T11:55:12.427Z,8.77
2017-11-01T11:57:40.738Z,8.30
2017-11-01T12:00:09.034Z,7.60
2017-11-01T12:02:37.329Z,7.47
2017-11-01T12:05:05.648Z,7.60
2017-11-01T12:07:34.850Z,8.03
2017-11-01T12:10:03.179Z,8.00
2017-11-01T12:12:31.491Z,6.77
2017-11-01T12:14:59.808Z,6.30
2017-11-01T12:17:28.103Z,6.33
2017-11-01T12:19:56.394Z,5.33
2017-11-01T12:22:24.684Z,5.87
2017-11-01T12:24:53.019Z,5.87
2017-11-01T12:27:21.318Z,7.13
2017-11-01T12:29:49.674Z,5.60
2017-11-01T12:32:18.730Z,5.47
2017-11-01T12:34:47.044Z,4.70
2017-11-01T12:37:15.343Z,5.03
2017-11-01T12:39:43.661Z,5.10
2017-11-01T12:42:11.982Z,5.33
2017-11-01T12:44:40.306Z,6.10
2017-11-01T12:47:08.647Z,5.30
2017-11-01T12:49:36.942Z,6.57
2017-11-01T12:52:05.243Z,6.73
2017-11-01T12:54:33.544Z,7.13
2017-11-01T12:57:01.832Z,6.93
2017-11-01T12:59:30.132Z,7.00
2017-11-01T13:01:58.465Z,7.90
2017-11-01T13:04:26.752Z,6.37
2017-11-01T13:06:55.045Z,5.67
2017-11-01T13:09:23.378Z,7.37
2017-11-01T13:11:51.659Z,5.90
2017-11-01T13:14:20.080Z,5.47
2017-11-01T13:16:48.376Z,5.23
2017-11-01T13:19:16.667Z,4.73
2017-11-01T13:21:45.803Z,5.03
2017-11-01T13:24:14.089Z,3.53
2017-11-01T13:26:42.400Z,3.67
2017-11-01T13:29:11.459Z,4.87
2017-11-01T13:31:39.760Z,3.57
2017-11-01T13:34:08.852Z,3.90
2017-11-01T13:36:37.133Z,3.70
2017-11-01T13:39:05.450Z,4.00
2017-11-01T13:41:34.536Z,4.60
2017-11-01T13:44:03.759Z,3.80
2017-11-01T13:46:32.815Z,3.40
2017-11-01T13:49:01.131Z,4.40
2017-11-01T13:51:29.434Z,4.97
2017-11-01T13:53:57.743Z,3.33
2017-11-01T13:56:26.058Z,4.33
2017-11-01T13:58:54.366Z,3.27
2017-11-01T14:01:22.685Z,4.20
2017-11-01T14:03:50.976Z,4.50
2017-11-01T14:06:19.267Z,3.93
2017-11-01T14:08:48.350Z,3.77
2017-11-01T14:11:16.650Z,4.20
2017-11-01T14:13:44.964Z,3.13
2017-11-01T14:16:14.051Z,4.37
2017-11-01T14:18:42.384Z,4.17
2017-11-01T14:21:10.923Z,3.53
2017-11-01T14:23:39.214Z,3.70
2017-11-01T14:26:07.536Z,3.77
2017-11-01T14:28:36.593Z,4.00
2017-11-01T14:31:04.972Z,3.90
2017-11-01T14:33:33.260Z,3.23
2017-11-01T14:36:01.546Z,4.20
2017-11-01T14:38:29.840Z,3.60
2017-11-01T14:40:58.130Z,4.77
2017-11-01T14:43:26.463Z,3.27
2017-11-01T14:45:54.781Z,2.93
2017-11-01T14:48:23.068Z,3.60
2017-11-01T14:50:51.428Z,3.30
2017-11-01T14:53:19.751Z,3.70
2017-11-01T14:55:48.078Z,3.77
2017-11-01T14:58:16.400Z,3.57
2017-11-01T15:00:44.723Z,3.47
2017-11-01T15:03:13.018Z,3.63
2017-11-01T15:05:41.370Z,4.13
2017-11-01T15:08:10.442Z,4.63
2017-11-01T15:10:38.754Z,3.40
2017-11-01T15:13:07.053Z,4.30
2017-11-01T15:15:35.370Z,3.90
2017-11-01T15:18:03.666Z,2.83
2017-11-01T15:20:31.975Z,3.27
2017-11-01T15:23:00.295Z,3.57
2017-11-01T15:25:28.630Z,2.80
2017-11-01T15:27:56.957Z,3.40
2017-11-01T15:30:25.275Z,2.93
2017-11-01T15:32:54.363Z,2.63
2017-11-01T15:35:22.661Z,3.20
2017-11-01T15:37:50.950Z,2.90
2017-11-01T15:40:19.268Z,4.03
2017-11-01T15:42:47.567Z,3.87
2017-11-01T15:45:15.879Z,3.53
2017-11-01T15:47:44.178Z,2.67
2017-11-01T15:50:12.514Z,3.43
2017-11-01T15:52:41.592Z,4.03
2017-11-01T15:55:09.880Z,3.10
2017-11-01T15:57:38.223Z,2.93
2017-11-01T16:00:06.502Z,2.87
2017-11-01T16:02:35.625Z,4.20
2017-11-01T16:05:03.942Z,3.40
2017-11-01T16:07:32.291Z,3.70
2017-11-01T16:10:00.737Z,3.50
2017-11-01T16:12:29.334Z,2.97
2017-11-01T16:14:58.783Z,4.23
2017-11-01T16:17:27.233Z,3.90
2017-11-01T16:19:55.806Z,2.50
2017-11-01T16:22:24.415Z,3.33
2017-11-01T16:24:53.036Z,3.17
2017-11-01T16:27:21.589Z,3.40
2017-11-01T16:29:50.208Z,3.50
2017-11-01T16:32:18.739Z,2.87
2017-11-01T16:34:47.276Z,3.83
2017-11-01T16:37:15.725Z,3.40
2017-11-01T16:39:44.245Z,4.40
2017-11-01T16:42:12.872Z,4.27
2017-11-01T16:44:41.378Z,3.77
2017-11-01T16:47:09.983Z,3.60
2017-11-01T16:49:38.603Z,3.07
2017-11-01T16:52:07.178Z,2.83
2017-11-01T16:54:36.663Z,2.57
2017-11-01T16:57:05.261Z,2.70
2017-11-01T16:59:33.874Z,4.37
2017-11-01T17:02:02.404Z,3.50
2017-11-01T17:04:30.944Z,4.20
2017-11-01T17:06:59.601Z,2.50
2017-11-01T17:09:28.061Z,2.47
2017-11-01T17:11:56.637Z,4.50
2017-11-01T17:14:25.165Z,3.30
2017-11-01T17:16:53.691Z,4.00
2017-11-01T17:19:22.316Z,3.10
2017-11-01T17:21:50.661Z,3.63
2017-11-01T17:24:19.910Z,3.00
2017-11-01T17:26:48.191Z,3.00
2017-11-01T17:29:16.470Z,2.60
2017-11-01T17:31:44.756Z,2.80
2017-11-01T17:34:13.041Z,3.30
2017-11-01T17:36:42.111Z,2.70
2017-11-01T17:39:10.504Z,2.53
2017-11-01T17:41:38.806Z,3.83
2017-11-01T17:44:07.096Z,4.27
2017-11-01T17:46:35.374Z,3.07
2017-11-01T17:49:03.664Z,3.57
2017-11-01T17:51:31.938Z,3.23
2017-11-01T17:54:00.221Z,2.77
2017-11-01T17:56:28.495Z,4.10
2017-11-01T17:58:56.823Z,3.20
2017-11-01T18:01:25.101Z,3.20
2017-11-01T18:03:53.387Z,3.50
2017-11-01T18:06:21.734Z,3.40
2017-11-01T18:08:50.010Z,3.20
2017-11-01T18:11:18.337Z,2.13
2017-11-01T18:13:46.669Z,2.50
2017-11-01T18:16:15.711Z,2.63
2017-11-01T18:18:44.178Z,2.90
2017-11-01T18:21:13.371Z,2.63
2017-11-01T18:23:41.872Z,2.30
2017-11-01T18:26:11.298Z,3.30
2017-11-01T18:28:40.095Z,3.10
2017-11-01T18:31:09.140Z,3.03
2017-11-01T18:33:37.427Z,1.87
2017-11-01T18:36:05.738Z,2.03
2017-11-01T18:38:34.027Z,2.27
2017-11-01T18:41:02.319Z,2.03
2017-11-01T18:43:30.595Z,1.93
2017-11-01T18:45:58.870Z,2.10
2017-11-01T18:48:27.204Z,2.40
2017-11-01T18:50:55.481Z,2.17
2017-11-01T18:53:23.790Z,2.60
2017-11-01T18:55:52.835Z,2.20
2017-11-01T18:58:21.132Z,1.80
2017-11-01T19:00:49.413Z,1.83
2017-11-01T19:03:17.695Z,1.60
2017-11-01T19:05:46.003Z,1.93
2017-11-01T19:08:14.300Z,1.77
2017-11-01T19:10:42.590Z,1.47
2017-11-01T19:13:10.868Z,1.60
2017-11-01T19:15:39.190Z,1.30
2017-11-01T19:18:07.501Z,1.27
2017-11-01T19:20:36.582Z,2.30
2017-11-01T19:23:05.027Z,1.30
2017-11-01T19:25:33.345Z,1.33
2017-11-01T19:28:01.892Z,1.83
2017-11-01T19:30:30.936Z,3.20
2017-11-01T19:32:59.267Z,2.00
2017-11-01T19:35:27.580Z,1.20
2017-11-01T19:37:56.626Z,1.40
2017-11-01T19:40:24.973Z,1.47
2017-11-01T19:42:54.033Z,1.60
2017-11-01T19:45:22.420Z,1.30
2017-11-01T19:47:50.699Z,1.90
2017-11-01T19:50:18.973Z,1.83
2017-11-01T19:52:48.026Z,1.73
2017-11-01T19:55:16.341Z,2.40
2017-11-01T19:57:45.422Z,1.27
2017-11-01T20:00:14.642Z,1.53
2017-11-01T20:02:42.950Z,1.53
2017-11-01T20:05:12.003Z,1.77
2017-11-01T20:07:40.522Z,1.60
2017-11-01T20:10:09.623Z,1.53
2017-11-01T20:12:37.908Z,2.13
2017-11-01T20:15:06.226Z,1.77
2017-11-01T20:17:34.987Z,2.17
2017-11-01T20:20:03.463Z,2.03
2017-11-01T20:22:31.733Z,1.77
2017-11-01T20:25:00.043Z,1.53
2017-11-01T20:27:28.465Z,2.73
2017-11-01T20:29:56.867Z,1.50
2017-11-01T20:32:25.266Z,1.77
2017-11-01T20:34:53.632Z,1.50
2017-11-01T20:37:21.975Z,1.47
2017-11-01T20:39:50.301Z,1.40
2017-11-01T20:42:18.667Z,2.20
2017-11-01T20:44:47.058Z,1.40
2017-11-01T20:47:15.409Z,1.97
2017-11-01T20:49:44.544Z,4.13
2017-11-01T20:52:12.927Z,6.70
2017-11-01T20:54:41.255Z,5.40
2017-11-01T20:57:09.631Z,2.53
2017-11-01T20:59:38.003Z,1.37
2017-11-01T21:02:06.389Z,1.50
2017-11-01T21:04:34.785Z,1.90
2017-11-01T21:07:03.238Z,1.10
2017-11-01T21:09:32.386Z,1.20
2017-11-01T21:12:01.569Z,1.40
2017-11-01T21:14:29.883Z,1.50
2017-11-01T21:16:58.928Z,1.23
2017-11-01T21:19:27.251Z,1.20
2017-11-01T21:21:55.615Z,1.47
2017-11-01T21:24:23.902Z,2.20
2017-11-01T21:26:52.189Z,1.30
2017-11-01T21:29:20.482Z,1.70
2017-11-01T21:31:48.773Z,1.97
2017-11-01T21:34:17.102Z,1.20
2017-11-01T21:36:45.472Z,1.37
2017-11-01T21:39:13.768Z,1.50
2017-11-01T21:41:42.073Z,1.60
2017-11-01T21:44:11.264Z,1.93
2017-11-01T21:46:40.323Z,1.30
2017-11-01T21:49:08.598Z,1.70
2017-11-01T21:51:36.888Z,1.53
2017-11-01T21:54:05.194Z,1.23
2017-11-01T21:56:33.511Z,2.03
2017-11-01T21:59:01.916Z,0.90
2017-11-01T22:01:30.232Z,1.27
2017-11-01T22:03:59.275Z,1.07
2017-11-01T22:06:27.550Z,1.10
2017-11-01T22:08:55.836Z,1.80
2017-11-01T22:11:24.159Z,1.40
2017-11-01T22:13:52.574Z,1.67
2017-11-01T22:16:20.841Z,1.60
2017-11-01T22:18:49.121Z,3.33
2017-11-01T22:21:17.402Z,1.13
2017-11-01T22:23:45.683Z,1.40
2017-11-01T22:26:13.987Z,1.37
2017-11-01T22:28:42.280Z,2.30
2017-11-01T22:31:10.587Z,1.57
2017-11-01T22:33:38.880Z,1.80
2017-11-01T22:36:07.179Z,1.40
2017-11-01T22:38:36.222Z,1.50
2017-11-01T22:41:04.535Z,1.30
2017-11-01T22:43:32.831Z,1.30
2017-11-01T22:46:01.102Z,1.10
2017-11-01T22:48:29.515Z,1.40
2017-11-01T22:50:57.795Z,1.40
2017-11-01T22:53:26.066Z,1.93
2017-11-01T22:55:54.356Z,1.30
2017-11-01T22:58:22.666Z,1.30
2017-11-01T23:00:50.962Z,1.53
2017-11-01T23:03:19.307Z,1.80
2017-11-01T23:05:47.606Z,1.53
2017-11-01T23:08:15.917Z,2.07
2017-11-01T23:10:44.210Z,2.23
2017-11-01T23:13:12.505Z,1.60
2017-11-01T23:15:40.810Z,1.53
2017-11-01T23:18:09.096Z,1.60
2017-11-01T23:20:37.378Z,1.60
2017-11-01T23:23:05.682Z,1.40
2017-11-01T23:25:34.726Z,1.77
2017-11-01T23:28:03.062Z,1.30
2017-11-01T23:30:31.378Z,1.57
2017-11-01T23:33:00.427Z,1.53
2017-11-01T23:35:28.715Z,1.70
2017-11-01T23:37:56.992Z,1.50
2017-11-01T23:40:25.299Z,1.30
2017-11-01T23:42:53.594Z,1.70
2017-11-01T23:45:21.858Z,1.50
2017-11-01T23:47:50.182Z,1.90
2017-11-01T23:50:18.463Z,2.30
2017-11-01T23:52:46.787Z,1.30
2017-11-01T23:55:15.843Z,1.60
2017-11-01T23:57:44.175Z,2.40
